Portada
METAR-TAF:

METAR-TAF

Aeroports :

Christchurch, Nova Zelanda

latitud: 43-29S, longitud: 172-33E, altitud: 38 m

Observació

L'informe es va fer fa 43 minuts, a les 11:00 UTC
Vent 5 kt del Oest/Sud-Oest
Temperatura 10°C
Humitat 100%
Pressió 1016 hPa
Visibilitat 10 km o més

METAR: NZCH 251100Z AUTO 24005KT 9999 SCT009/// BKN014/// BKN033/// 10/10 Q1016 TEMPO 6000 SHRA BKN008

Hora: 23:43 (11:43 UTC)

Pronòstic

L'informe es va fer fa 33 minuts, a les 11:10 UTC
Pronòstic vàlid del 25 a les 12 UTC al 26 a les 12 UTC
Vent 10 kt del Sud-Oest
Visibilitat 10 km o més
Escasses núvols a una alçada de 1000 ft
Cel ennuvolat a una alçada de 2500 ft
xàfecs de pluja
Temporalment
l' 25 a les 12 UTC al 25 a les 16 UTC
Visibilitat: 6000 m
Cel ennuvolat a una alçada de 800 ft
xàfecs de pluja
Temporalment
l' 25 a les 16 UTC al 25 a les 22 UTC
Cel ennuvolat a una alçada de 1200 ft

TAF: NZCH 251110Z 2512/2612 22010KT 9999 -SHRA FEW010 BKN025 TEMPO 2512/2516 6000 SHRA BKN008 TEMPO 2516/2522 BKN012

Observacions i pronòstics meteorològics de més de 4000 aeroports (METAR i TAF).

Les estacions disponibles són els punts grocs i vermells al mapa.

Posi el ratolí al punt desitjat per veure el nom de l'estació.

Feu clic per veure les observacions i els pronòstics meteorològics.

Per canviar el mapa: feu clic els botons verds amb una creu de color negre per apropar; al botó verd amb un guió per allunyar la imatge; o en les fletxes verdes per a mapes adjacents.


METAR-TAF: